createdAt,value
2023-05-19T00:01:20.469Z,8.40
2023-05-19T00:03:56.040Z,8.37
2023-05-19T00:06:25.312Z,8.33
2023-05-19T00:09:04.266Z,8.28
2023-05-19T00:11:32.018Z,8.27
2023-05-19T00:14:00.357Z,8.23
2023-05-19T00:16:29.757Z,8.22
2023-05-19T00:19:00.758Z,8.19
2023-05-19T00:21:28.944Z,8.13
2023-05-19T00:23:56.267Z,8.11
2023-05-19T00:26:23.314Z,8.06
2023-05-19T00:28:50.840Z,8.06
2023-05-19T00:31:17.803Z,8.03
2023-05-19T00:33:44.721Z,8.00
2023-05-19T00:36:12.004Z,7.98
2023-05-19T00:38:38.959Z,7.93
2023-05-19T00:41:06.849Z,7.91
2023-05-19T00:43:37.170Z,7.88
2023-05-19T00:46:04.294Z,7.87
2023-05-19T00:48:31.153Z,7.83
2023-05-19T00:51:04.481Z,7.80
2023-05-19T00:53:35.632Z,7.79
2023-05-19T00:56:03.359Z,7.78
2023-05-19T00:58:32.819Z,7.75
2023-05-19T01:01:04.812Z,7.73
2023-05-19T01:03:35.732Z,7.69
2023-05-19T01:06:07.518Z,7.68
2023-05-19T01:08:36.624Z,7.64
2023-05-19T01:11:04.556Z,7.61
2023-05-19T01:13:31.987Z,7.57
2023-05-19T01:15:58.814Z,7.54
2023-05-19T01:18:46.373Z,7.52
2023-05-19T01:21:36.998Z,7.51
2023-05-19T01:24:25.603Z,7.46
2023-05-19T01:27:30.115Z,7.42
2023-05-19T01:30:14.326Z,7.40
2023-05-19T01:32:42.708Z,7.38
2023-05-19T01:35:10.445Z,7.37
2023-05-19T01:37:39.568Z,7.36
2023-05-19T01:40:10.222Z,7.32
2023-05-19T01:42:40.211Z,7.29
2023-05-19T01:45:10.577Z,7.25
2023-05-19T01:47:42.128Z,7.23
2023-05-19T01:50:09.697Z,7.19
2023-05-19T01:52:36.776Z,7.18
2023-05-19T01:55:03.763Z,7.16
2023-05-19T01:57:35.324Z,7.14
2023-05-19T02:00:08.546Z,7.12
2023-05-19T02:02:47.848Z,7.09
2023-05-19T02:05:31.436Z,7.09
2023-05-19T02:08:06.668Z,7.07
2023-05-19T02:10:38.672Z,7.04
2023-05-19T02:13:09.336Z,7.02
2023-05-19T02:15:42.384Z,6.95
2023-05-19T02:18:12.740Z,6.93
2023-05-19T02:20:40.092Z,6.89
2023-05-19T02:23:07.402Z,6.89
2023-05-19T02:25:34.265Z,6.86
2023-05-19T02:28:01.086Z,6.83
2023-05-19T02:30:28.007Z,6.81
2023-05-19T02:32:55.599Z,6.78
2023-05-19T02:35:22.525Z,6.75
2023-05-19T02:37:49.312Z,6.72
2023-05-19T02:40:16.213Z,6.71
2023-05-19T02:42:43.005Z,6.68
2023-05-19T02:45:10.196Z,6.64
2023-05-19T02:47:38.485Z,6.64
2023-05-19T02:50:06.465Z,6.63
2023-05-19T02:52:33.300Z,6.60
2023-05-19T02:55:00.594Z,6.57
2023-05-19T02:57:27.392Z,6.55
2023-05-19T02:59:54.139Z,6.54
2023-05-19T03:02:21.078Z,6.51
2023-05-19T03:04:48.008Z,6.50
2023-05-19T03:07:15.696Z,6.49
2023-05-19T03:09:42.543Z,6.45
2023-05-19T03:12:09.659Z,6.44
2023-05-19T03:14:39.259Z,6.43
2023-05-19T03:17:08.253Z,6.40
2023-05-19T03:19:35.277Z,6.40
2023-05-19T03:22:02.285Z,6.37
2023-05-19T03:24:29.155Z,6.36
2023-05-19T03:26:56.127Z,6.35
2023-05-19T03:29:22.936Z,6.33
2023-05-19T03:31:49.811Z,6.34
2023-05-19T03:34:16.685Z,6.33
2023-05-19T03:36:45.185Z,6.31
2023-05-19T03:39:12.281Z,6.32
2023-05-19T03:41:39.040Z,6.32
2023-05-19T03:44:06.005Z,6.32
2023-05-19T03:46:32.833Z,6.32
2023-05-19T03:48:59.630Z,6.33
2023-05-19T03:51:28.760Z,6.33
2023-05-19T03:53:56.062Z,6.37
2023-05-19T03:56:23.788Z,6.39
2023-05-19T03:58:50.642Z,6.39
2023-05-19T04:01:17.899Z,6.40
2023-05-19T04:03:44.778Z,6.41
2023-05-19T04:06:11.642Z,6.46
2023-05-19T04:08:39.506Z,6.50
2023-05-19T04:11:06.352Z,6.52
2023-05-19T04:13:34.042Z,6.54
2023-05-19T04:16:01.568Z,6.59
2023-05-19T04:18:29.047Z,6.63
2023-05-19T04:20:56.366Z,6.68
2023-05-19T04:23:23.408Z,6.74
2023-05-19T04:25:50.311Z,6.77
2023-05-19T04:28:18.148Z,6.85
2023-05-19T04:30:46.766Z,6.93
2023-05-19T04:33:13.979Z,6.98
2023-05-19T04:35:40.996Z,7.07
2023-05-19T04:38:07.863Z,7.22
2023-05-19T04:40:34.864Z,8.29
2023-05-19T04:43:02.345Z,8.43
2023-05-19T04:45:29.381Z,8.54
2023-05-19T04:47:58.336Z,9.14
2023-05-19T04:50:25.535Z,9.84
2023-05-19T04:52:52.379Z,10.75
2023-05-19T04:55:19.821Z,11.91
2023-05-19T04:57:47.095Z,12.53
2023-05-19T05:00:14.703Z,12.31
2023-05-19T05:02:43.065Z,12.98
2023-05-19T05:05:10.343Z,13.48
2023-05-19T05:07:37.192Z,13.03
2023-05-19T05:10:04.542Z,12.42
2023-05-19T05:12:32.564Z,11.83
2023-05-19T05:14:59.885Z,11.92
2023-05-19T05:17:28.396Z,12.55
2023-05-19T05:19:55.728Z,12.65
2023-05-19T05:22:22.931Z,12.72
2023-05-19T05:24:50.059Z,12.73
2023-05-19T05:27:16.895Z,12.23
2023-05-19T05:29:43.865Z,12.28
2023-05-19T05:32:10.911Z,12.81
2023-05-19T05:34:38.331Z,13.61
2023-05-19T05:37:05.308Z,13.50
2023-05-19T05:39:32.222Z,12.99
2023-05-19T05:41:59.036Z,12.61
2023-05-19T05:44:26.008Z,13.29
2023-05-19T05:46:53.167Z,14.61
2023-05-19T05:49:20.347Z,15.95
2023-05-19T05:52:01.510Z,16.58
2023-05-19T05:54:32.546Z,17.23
2023-05-19T05:56:59.698Z,17.47
2023-05-19T05:59:26.532Z,17.70
2023-05-19T06:01:53.403Z,17.79
2023-05-19T06:04:21.399Z,17.15
2023-05-19T06:06:48.317Z,16.37
2023-05-19T06:09:15.108Z,16.96
2023-05-19T06:11:41.923Z,17.93
2023-05-19T06:14:08.800Z,18.50
2023-05-19T06:16:35.881Z,18.59
2023-05-19T06:19:02.805Z,18.54
2023-05-19T06:21:29.781Z,18.62
2023-05-19T06:23:56.785Z,17.70
2023-05-19T06:26:23.641Z,17.03
2023-05-19T06:28:50.721Z,17.03
2023-05-19T06:31:17.676Z,17.42
2023-05-19T06:33:44.523Z,17.89
2023-05-19T06:36:12.172Z,18.23
2023-05-19T06:38:39.174Z,18.21
2023-05-19T06:41:07.035Z,17.50
2023-05-19T06:43:33.916Z,17.08
2023-05-19T06:46:00.752Z,16.53
2023-05-19T06:48:27.788Z,16.30
2023-05-19T06:50:54.792Z,16.38
2023-05-19T06:53:21.825Z,16.49
2023-05-19T06:55:59.574Z,16.76
2023-05-19T06:58:27.549Z,16.82
2023-05-19T07:00:54.599Z,16.90
2023-05-19T07:03:21.473Z,16.88
2023-05-19T07:05:48.555Z,16.94
2023-05-19T07:08:15.550Z,16.92
2023-05-19T07:10:42.474Z,16.90
2023-05-19T07:13:09.328Z,17.17
2023-05-19T07:15:36.397Z,17.13
2023-05-19T07:18:03.318Z,17.12
2023-05-19T07:20:30.485Z,17.03
2023-05-19T07:22:57.493Z,16.91
2023-05-19T07:25:24.517Z,16.78
2023-05-19T07:27:51.528Z,16.85
2023-05-19T07:30:18.421Z,16.80
2023-05-19T07:32:45.617Z,16.86
2023-05-19T07:35:12.573Z,17.08
2023-05-19T07:37:39.713Z,17.24
2023-05-19T07:40:08.140Z,17.44
2023-05-19T07:42:35.370Z,17.65
2023-05-19T07:45:03.614Z,17.51
2023-05-19T07:47:31.939Z,17.22
2023-05-19T07:49:59.050Z,17.07
2023-05-19T07:52:26.098Z,16.97
2023-05-19T07:54:53.568Z,17.05
2023-05-19T07:57:20.634Z,17.26
2023-05-19T07:59:47.629Z,17.42
2023-05-19T08:02:14.610Z,17.41
2023-05-19T08:04:41.727Z,17.22
2023-05-19T08:07:08.876Z,17.30
2023-05-19T08:09:36.007Z,17.51
2023-05-19T08:12:05.063Z,17.84
2023-05-19T08:14:33.509Z,18.11
2023-05-19T08:17:00.420Z,18.21
2023-05-19T08:19:27.363Z,18.26
2023-05-19T08:21:54.443Z,18.30
2023-05-19T08:24:21.289Z,18.39
2023-05-19T08:26:48.252Z,18.46
2023-05-19T08:29:15.150Z,18.59
2023-05-19T08:31:42.110Z,18.68
2023-05-19T08:34:09.541Z,18.60
2023-05-19T08:36:36.515Z,18.83
2023-05-19T08:39:03.673Z,18.86
2023-05-19T08:41:30.611Z,18.71
2023-05-19T08:43:57.606Z,18.73
2023-05-19T08:46:25.928Z,18.92
2023-05-19T08:49:06.853Z,19.13
2023-05-19T08:51:43.748Z,19.28
2023-05-19T08:54:18.304Z,19.14
2023-05-19T08:56:45.840Z,19.25
2023-05-19T08:59:15.315Z,19.23
2023-05-19T09:01:46.532Z,19.33
2023-05-19T09:04:14.387Z,19.41
2023-05-19T09:06:42.576Z,19.10
2023-05-19T09:09:09.926Z,19.11
2023-05-19T09:11:37.880Z,18.81
2023-05-19T09:14:05.416Z,18.47
2023-05-19T09:16:34.160Z,18.43
2023-05-19T09:19:01.491Z,18.54
2023-05-19T09:21:32.521Z,19.07
2023-05-19T09:24:08.431Z,19.26
2023-05-19T09:26:43.036Z,19.53
2023-05-19T09:29:17.317Z,19.72
2023-05-19T09:31:50.983Z,19.73
2023-05-19T09:34:18.923Z,19.60
2023-05-19T09:36:49.713Z,19.69
2023-05-19T09:39:17.550Z,19.83
2023-05-19T09:41:45.322Z,20.13
2023-05-19T09:44:21.455Z,20.46
2023-05-19T09:46:49.966Z,20.43
2023-05-19T09:49:21.969Z,20.41
2023-05-19T09:52:03.921Z,20.39
2023-05-19T09:54:32.685Z,20.13
2023-05-19T09:57:04.036Z,19.92
2023-05-19T09:59:33.679Z,19.37
2023-05-19T10:02:01.714Z,19.47
2023-05-19T10:04:30.362Z,19.69
2023-05-19T10:07:05.761Z,19.94
2023-05-19T10:09:34.257Z,20.05
2023-05-19T10:12:02.548Z,20.10
2023-05-19T10:14:30.143Z,20.05
2023-05-19T10:16:59.020Z,20.21
2023-05-19T10:19:27.724Z,20.31
2023-05-19T10:21:56.157Z,20.20
2023-05-19T10:24:23.289Z,20.16
2023-05-19T10:27:05.471Z,20.38
2023-05-19T10:29:36.680Z,20.66
2023-05-19T10:32:10.683Z,20.84
2023-05-19T10:35:09.499Z,20.80
2023-05-19T10:37:51.424Z,20.89
2023-05-19T10:40:39.149Z,21.16
2023-05-19T10:43:31.062Z,21.36
2023-05-19T10:45:58.229Z,21.49
2023-05-19T10:48:25.208Z,21.37
2023-05-19T10:50:56.689Z,21.29
2023-05-19T10:53:33.432Z,21.09
2023-05-19T10:56:06.953Z,21.37
2023-05-19T10:58:49.628Z,21.53
2023-05-19T11:01:18.400Z,21.54
2023-05-19T11:03:50.935Z,21.76
2023-05-19T11:06:27.010Z,21.77
2023-05-19T11:09:15.628Z,21.94
2023-05-19T11:11:50.382Z,21.79
2023-05-19T11:14:43.439Z,21.67
2023-05-19T11:17:15.514Z,21.79
2023-05-19T11:19:54.784Z,21.75
2023-05-19T11:22:26.647Z,21.99
2023-05-19T11:24:57.686Z,22.20
2023-05-19T11:27:31.903Z,22.25
2023-05-19T11:30:09.568Z,22.42
2023-05-19T11:32:39.606Z,22.53
2023-05-19T11:35:08.117Z,22.29
2023-05-19T11:37:35.980Z,21.95
2023-05-19T11:40:07.794Z,21.89
2023-05-19T11:42:37.191Z,22.08
2023-05-19T11:45:05.305Z,22.58
2023-05-19T11:47:46.037Z,22.48
2023-05-19T11:50:20.363Z,22.54
2023-05-19T11:52:48.142Z,22.56
2023-05-19T11:55:19.327Z,22.71
2023-05-19T11:58:04.551Z,22.80
2023-05-19T12:00:39.842Z,22.47
2023-05-19T12:03:08.387Z,22.53
2023-05-19T12:05:44.348Z,22.35
2023-05-19T12:08:12.632Z,22.37
2023-05-19T12:10:40.898Z,22.20
2023-05-19T12:13:09.937Z,21.75
2023-05-19T12:15:37.805Z,21.80
2023-05-19T12:18:04.787Z,22.43
2023-05-19T12:20:32.903Z,22.41
2023-05-19T12:23:01.227Z,22.32
2023-05-19T12:25:29.993Z,22.36
2023-05-19T12:28:03.174Z,22.17
2023-05-19T12:30:31.982Z,21.84
2023-05-19T12:32:59.834Z,21.71
2023-05-19T12:35:29.094Z,21.61
2023-05-19T12:37:56.379Z,21.54
2023-05-19T12:40:23.457Z,21.64
2023-05-19T12:42:53.512Z,21.68
2023-05-19T12:45:26.024Z,21.86
2023-05-19T12:47:53.124Z,22.09
2023-05-19T12:50:20.485Z,22.17
2023-05-19T12:52:51.443Z,22.33
2023-05-19T12:55:20.760Z,22.42
2023-05-19T12:57:54.957Z,22.93
2023-05-19T13:00:25.793Z,22.91
2023-05-19T13:03:05.690Z,22.74
2023-05-19T13:05:38.740Z,23.02
2023-05-19T13:08:08.736Z,23.03
2023-05-19T13:10:37.281Z,22.83
2023-05-19T13:13:05.418Z,22.82
2023-05-19T13:15:34.671Z,22.57
2023-05-19T13:18:03.838Z,22.56
2023-05-19T13:20:31.199Z,22.67
2023-05-19T13:22:58.217Z,22.67
2023-05-19T13:25:25.988Z,22.45
2023-05-19T13:27:54.622Z,22.32
2023-05-19T13:30:22.160Z,22.30
2023-05-19T13:32:49.007Z,22.34
2023-05-19T13:35:16.073Z,22.18
2023-05-19T13:37:43.290Z,22.01
2023-05-19T13:40:10.953Z,22.16
2023-05-19T13:42:38.260Z,22.17
2023-05-19T13:45:05.655Z,22.23
2023-05-19T13:47:32.656Z,22.41
2023-05-19T13:49:59.687Z,22.38
2023-05-19T13:52:28.354Z,22.44
2023-05-19T13:54:57.559Z,22.52
2023-05-19T13:57:25.659Z,22.77
2023-05-19T14:00:01.998Z,22.93
2023-05-19T14:02:30.466Z,22.75
2023-05-19T14:04:57.756Z,22.71
2023-05-19T14:07:25.712Z,22.50
2023-05-19T14:09:53.101Z,22.30
2023-05-19T14:12:23.201Z,21.88
2023-05-19T14:14:52.339Z,21.63
2023-05-19T14:17:20.755Z,21.67
2023-05-19T14:19:47.741Z,21.80
2023-05-19T14:22:14.816Z,22.00
2023-05-19T14:24:42.055Z,22.09
2023-05-19T14:27:08.892Z,22.21
2023-05-19T14:29:35.765Z,22.34
2023-05-19T14:32:03.962Z,22.11
2023-05-19T14:34:31.066Z,21.87
2023-05-19T14:36:58.119Z,22.00
2023-05-19T14:39:24.939Z,22.11
2023-05-19T14:41:53.126Z,22.06
2023-05-19T14:44:20.183Z,21.90
2023-05-19T14:46:47.170Z,21.92
2023-05-19T14:49:14.193Z,21.93
2023-05-19T14:51:41.196Z,21.82
2023-05-19T14:54:08.083Z,21.70
2023-05-19T14:56:35.106Z,21.73
2023-05-19T14:59:02.061Z,21.86
2023-05-19T15:01:29.121Z,21.96
2023-05-19T15:03:56.497Z,21.80
2023-05-19T15:06:24.014Z,21.78
2023-05-19T15:08:51.175Z,21.83
2023-05-19T15:11:18.139Z,21.64
2023-05-19T15:13:45.010Z,21.39
2023-05-19T15:18:41.903Z,21.35
2023-05-19T15:21:08.869Z,21.34
2023-05-19T15:23:35.858Z,21.35
2023-05-19T15:26:02.912Z,21.48
2023-05-19T15:28:29.966Z,21.43
2023-05-19T15:30:56.897Z,21.38
2023-05-19T15:33:23.799Z,21.40
2023-05-19T15:35:52.377Z,21.21
2023-05-19T15:38:19.895Z,21.25
2023-05-19T15:40:47.104Z,21.50
2023-05-19T15:43:14.186Z,21.48
2023-05-19T15:45:41.409Z,21.32
2023-05-19T15:48:08.706Z,21.24
2023-05-19T15:50:36.382Z,21.23
2023-05-19T15:53:03.740Z,21.27
2023-05-19T15:55:30.687Z,21.26
2023-05-19T15:57:57.679Z,21.30
2023-05-19T16:00:24.659Z,21.39
2023-05-19T16:02:51.709Z,21.26
2023-05-19T16:05:18.817Z,20.87
2023-05-19T16:07:45.716Z,20.67
2023-05-19T16:10:12.693Z,20.51
2023-05-19T16:12:39.573Z,20.39
2023-05-19T16:15:07.038Z,20.39
2023-05-19T16:17:34.926Z,20.44
2023-05-19T16:20:02.036Z,20.54
2023-05-19T16:22:30.474Z,20.60
2023-05-19T16:24:57.402Z,20.60
2023-05-19T16:27:24.272Z,20.66
2023-05-19T16:29:51.313Z,20.65
2023-05-19T16:32:18.181Z,20.57
2023-05-19T16:34:45.145Z,20.59
2023-05-19T16:37:11.992Z,20.51
2023-05-19T16:39:40.347Z,20.43
2023-05-19T16:42:07.508Z,20.32
2023-05-19T16:44:34.365Z,20.10
2023-05-19T16:47:01.243Z,19.93
2023-05-19T16:49:28.040Z,19.93
2023-05-19T16:51:55.987Z,19.94
2023-05-19T16:54:23.564Z,20.01
2023-05-19T16:56:51.380Z,20.19
2023-05-19T16:59:18.533Z,20.22
2023-05-19T17:01:45.593Z,20.26
2023-05-19T17:04:13.365Z,20.16
2023-05-19T17:06:40.261Z,20.04
2023-05-19T17:09:07.183Z,19.79
2023-05-19T17:11:34.237Z,19.65
2023-05-19T17:14:02.185Z,19.51
2023-05-19T17:16:28.999Z,19.33
2023-05-19T17:18:56.220Z,19.30
2023-05-19T17:21:23.139Z,19.32
2023-05-19T17:23:50.265Z,19.34
2023-05-19T17:26:17.303Z,19.41
2023-05-19T17:28:44.637Z,19.55
2023-05-19T17:31:12.737Z,19.56
2023-05-19T17:33:40.033Z,19.53
2023-05-19T17:36:08.323Z,19.56
2023-05-19T17:38:35.769Z,19.48
2023-05-19T17:41:04.792Z,19.32
2023-05-19T17:43:31.982Z,19.22
2023-05-19T17:46:00.915Z,19.07
2023-05-19T17:48:28.134Z,19.06
2023-05-19T17:50:55.114Z,19.03
2023-05-19T17:53:22.127Z,19.03
2023-05-19T17:55:53.887Z,19.00
2023-05-19T17:58:21.357Z,18.99
2023-05-19T18:00:48.471Z,18.93
2023-05-19T18:03:15.833Z,18.90
2023-05-19T18:05:44.818Z,18.82
2023-05-19T18:08:13.332Z,18.66
2023-05-19T18:10:42.088Z,18.53
2023-05-19T18:13:11.142Z,18.46
2023-05-19T18:15:38.015Z,18.30
2023-05-19T18:18:07.647Z,18.21
2023-05-19T18:20:35.255Z,18.17
2023-05-19T18:23:02.893Z,18.09
2023-05-19T18:25:29.706Z,18.01
2023-05-19T18:27:56.816Z,17.92
2023-05-19T18:30:23.912Z,17.86
2023-05-19T18:32:50.746Z,17.76
2023-05-19T18:35:17.817Z,17.63
2023-05-19T18:37:44.651Z,17.56
2023-05-19T18:40:11.506Z,17.47
2023-05-19T18:42:38.455Z,17.40
2023-05-19T18:45:06.469Z,17.34
2023-05-19T18:47:33.446Z,17.26
2023-05-19T18:50:00.345Z,17.19
2023-05-19T18:52:28.790Z,17.12
2023-05-19T18:54:55.773Z,17.07
2023-05-19T18:57:22.705Z,16.99
2023-05-19T18:59:49.558Z,16.89
2023-05-19T19:02:16.544Z,16.84
2023-05-19T19:04:43.760Z,16.76
2023-05-19T19:07:10.627Z,16.70
2023-05-19T19:09:37.584Z,16.65
2023-05-19T19:12:04.522Z,16.57
2023-05-19T19:14:31.896Z,16.48
2023-05-19T19:16:58.803Z,16.42
2023-05-19T19:19:28.515Z,16.33
2023-05-19T19:21:55.438Z,16.26
2023-05-19T19:24:22.304Z,16.18
2023-05-19T19:26:49.135Z,16.13
2023-05-19T19:29:18.348Z,16.06
2023-05-19T19:31:45.508Z,16.01
2023-05-19T19:34:13.737Z,15.90
2023-05-19T19:36:40.590Z,15.84
2023-05-19T19:39:07.663Z,15.78
2023-05-19T19:41:34.657Z,15.70
2023-05-19T19:44:01.504Z,15.63
2023-05-19T19:46:28.478Z,15.58
2023-05-19T19:48:58.381Z,15.52
2023-05-19T19:51:25.272Z,15.47
2023-05-19T19:53:52.150Z,15.44
2023-05-19T19:56:19.158Z,15.36
2023-05-19T19:58:46.303Z,15.33
2023-05-19T20:01:13.170Z,15.28
2023-05-19T20:03:40.071Z,15.22
2023-05-19T20:06:07.898Z,15.14
2023-05-19T20:08:34.840Z,15.06
2023-05-19T20:11:01.655Z,15.00
2023-05-19T20:13:28.817Z,14.95
2023-05-19T20:15:57.992Z,14.87
2023-05-19T20:18:25.971Z,14.82
2023-05-19T20:20:52.901Z,14.76
2023-05-19T20:23:19.844Z,14.72
2023-05-19T20:26:02.472Z,14.64
2023-05-19T20:28:35.995Z,14.54
2023-05-19T20:31:02.943Z,14.45
2023-05-19T20:33:30.006Z,14.39
2023-05-19T20:35:56.857Z,14.39
2023-05-19T20:38:23.846Z,14.36
2023-05-19T20:40:51.193Z,14.35
2023-05-19T20:43:18.208Z,14.32
2023-05-19T20:45:45.759Z,14.26
2023-05-19T20:48:12.722Z,14.25
2023-05-19T20:50:39.964Z,14.19
2023-05-19T20:53:07.614Z,14.18
2023-05-19T20:55:36.341Z,14.16
2023-05-19T20:58:03.346Z,14.13
2023-05-19T21:00:30.844Z,14.08
2023-05-19T21:02:58.044Z,14.05
2023-05-19T21:05:25.158Z,13.98
2023-05-19T21:07:52.020Z,13.96
2023-05-19T21:10:19.012Z,13.92
2023-05-19T21:12:46.909Z,13.88
2023-05-19T21:15:13.945Z,13.85
2023-05-19T21:17:40.917Z,13.79
2023-05-19T21:20:08.665Z,13.78
2023-05-19T21:22:36.152Z,13.74
2023-05-19T21:25:03.690Z,13.69
2023-05-19T21:27:33.019Z,13.66
2023-05-19T21:30:00.304Z,13.62
2023-05-19T21:32:27.934Z,13.56
2023-05-19T21:34:54.824Z,13.52
2023-05-19T21:37:21.851Z,13.50
2023-05-19T21:39:49.101Z,13.44
2023-05-19T21:42:15.862Z,13.39
2023-05-19T21:44:42.732Z,13.35
2023-05-19T21:47:09.582Z,13.33
2023-05-19T21:49:36.442Z,13.30
2023-05-19T21:52:03.342Z,13.27
2023-05-19T21:54:30.310Z,13.24
2023-05-19T21:56:57.070Z,13.21
2023-05-19T21:59:24.988Z,13.16
2023-05-19T22:01:52.492Z,13.14
2023-05-19T22:04:21.182Z,13.15
2023-05-19T22:06:48.036Z,13.09
2023-05-19T22:09:14.844Z,13.04
2023-05-19T22:11:41.920Z,13.03
2023-05-19T22:14:08.795Z,13.01
2023-05-19T22:16:35.750Z,12.95
2023-05-19T22:19:02.753Z,12.96
2023-05-19T22:21:29.729Z,12.90
2023-05-19T22:23:56.608Z,12.86
2023-05-19T22:26:23.495Z,12.81
2023-05-19T22:28:50.574Z,12.76
2023-05-19T22:31:17.842Z,12.71
2023-05-19T22:33:45.047Z,12.67
2023-05-19T22:36:11.887Z,12.62
2023-05-19T22:38:38.702Z,12.60
2023-05-19T22:41:05.675Z,12.56
2023-05-19T22:43:32.552Z,12.52
2023-05-19T22:45:59.469Z,12.49
2023-05-19T22:48:26.408Z,12.46
2023-05-19T22:50:53.306Z,12.40
2023-05-19T22:53:20.139Z,12.36
2023-05-19T22:55:47.139Z,12.34
2023-05-19T22:58:13.957Z,12.31
2023-05-19T23:00:40.766Z,12.24
2023-05-19T23:03:07.694Z,12.18
2023-05-19T23:05:35.073Z,12.13
2023-05-19T23:08:02.299Z,12.09
2023-05-19T23:10:29.216Z,12.05
2023-05-19T23:12:56.082Z,12.02
2023-05-19T23:15:22.889Z,12.00
2023-05-19T23:17:49.817Z,11.96
2023-05-19T23:20:16.799Z,11.92
2023-05-19T23:22:43.618Z,11.90
2023-05-19T23:25:10.547Z,11.85
2023-05-19T23:27:37.429Z,11.82
2023-05-19T23:30:04.747Z,11.77
2023-05-19T23:32:31.543Z,11.71
2023-05-19T23:34:58.406Z,11.66
2023-05-19T23:37:25.238Z,11.64
2023-05-19T23:39:52.022Z,11.60
2023-05-19T23:42:18.809Z,11.57
2023-05-19T23:44:45.779Z,11.53
2023-05-19T23:47:12.575Z,11.49
2023-05-19T23:49:39.411Z,11.45
2023-05-19T23:52:06.622Z,11.42
2023-05-19T23:54:33.429Z,11.37
2023-05-19T23:57:02.334Z,11.34
2023-05-19T23:59:29.126Z,11.31
